sensor_id;sensor_type;location;lat;lon;timestamp;temperature;humidity
27423;DHT22;14878;50.778;0.258;2022-08-05T00:00:53;18.70;99.90
27423;DHT22;14878;50.778;0.258;2022-08-05T00:01:53;18.70;99.90
27423;DHT22;14878;50.778;0.258;2022-08-05T00:02:54;18.70;99.90
27423;DHT22;14878;50.778;0.258;2022-08-05T00:03:55;18.70;99.90
27423;DHT22;14878;50.778;0.258;2022-08-05T00:04:56;18.70;99.90
27423;DHT22;14878;50.778;0.258;2022-08-05T00:05:57;18.70;99.90
27423;DHT22;14878;50.778;0.258;2022-08-05T00:06:58;18.70;99.90
27423;DHT22;14878;50.778;0.258;2022-08-05T00:07:58;18.60;99.90
27423;DHT22;14878;50.778;0.258;2022-08-05T00:08:59;18.60;99.90
27423;DHT22;14878;50.778;0.258;2022-08-05T00:10:00;18.60;99.90
27423;DHT22;14878;50.778;0.258;2022-08-05T00:11:04;18.60;99.90
27423;DHT22;14878;50.778;0.258;2022-08-05T00:12:05;18.60;99.90
27423;DHT22;14878;50.778;0.258;2022-08-05T00:13:06;18.70;99.90
27423;DHT22;14878;50.778;0.258;2022-08-05T00:14:07;18.70;99.90
27423;DHT22;14878;50.778;0.258;2022-08-05T00:15:08;18.60;99.90
27423;DHT22;14878;50.778;0.258;2022-08-05T00:16:13;18.60;99.90
27423;DHT22;14878;50.778;0.258;2022-08-05T00:17:14;18.60;99.90
27423;DHT22;14878;50.778;0.258;2022-08-05T00:18:14;18.60;99.90
27423;DHT22;14878;50.778;0.258;2022-08-05T00:19:15;18.50;99.90
27423;DHT22;14878;50.778;0.258;2022-08-05T00:20:16;18.50;99.90
27423;DHT22;14878;50.778;0.258;2022-08-05T00:21:17;18.40;99.90
27423;DHT22;14878;50.778;0.258;2022-08-05T00:22:18;18.40;99.90
27423;DHT22;14878;50.778;0.258;2022-08-05T00:23:19;18.40;99.90
27423;DHT22;14878;50.778;0.258;2022-08-05T00:24:21;18.40;99.90
27423;DHT22;14878;50.778;0.258;2022-08-05T00:25:22;18.40;99.90
27423;DHT22;14878;50.778;0.258;2022-08-05T00:26:22;18.30;99.90
27423;DHT22;14878;50.778;0.258;2022-08-05T00:27:23;18.40;99.90
27423;DHT22;14878;50.778;0.258;2022-08-05T00:28:24;18.40;99.90
27423;DHT22;14878;50.778;0.258;2022-08-05T00:29:25;18.40;99.90
27423;DHT22;14878;50.778;0.258;2022-08-05T00:30:29;18.30;99.90
27423;DHT22;14878;50.778;0.258;2022-08-05T00:31:29;18.30;99.90
27423;DHT22;14878;50.778;0.258;2022-08-05T00:32:30;18.20;99.90
27423;DHT22;14878;50.778;0.258;2022-08-05T00:33:32;18.20;99.90
27423;DHT22;14878;50.778;0.258;2022-08-05T00:34:33;18.20;99.90
27423;DHT22;14878;50.778;0.258;2022-08-05T00:35:34;18.30;99.90
27423;DHT22;14878;50.778;0.258;2022-08-05T00:36:35;18.20;99.90
27423;DHT22;14878;50.778;0.258;2022-08-05T00:37:36;18.20;99.90
27423;DHT22;14878;50.778;0.258;2022-08-05T00:38:36;18.20;99.90
27423;DHT22;14878;50.778;0.258;2022-08-05T00:39:39;18.20;99.90
27423;DHT22;14878;50.778;0.258;2022-08-05T00:40:55;18.10;99.90
27423;DHT22;14878;50.778;0.258;2022-08-05T00:41:56;18.10;99.90
27423;DHT22;14878;50.778;0.258;2022-08-05T00:42:58;18.10;99.90
27423;DHT22;14878;50.778;0.258;2022-08-05T00:43:59;18.10;99.90
27423;DHT22;14878;50.778;0.258;2022-08-05T00:45:01;18.20;99.90
27423;DHT22;14878;50.778;0.258;2022-08-05T00:46:02;18.10;99.90
27423;DHT22;14878;50.778;0.258;2022-08-05T00:47:03;18.10;99.90
27423;DHT22;14878;50.778;0.258;2022-08-05T00:48:04;18.20;99.90
27423;DHT22;14878;50.778;0.258;2022-08-05T00:49:05;18.20;99.90
27423;DHT22;14878;50.778;0.258;2022-08-05T00:50:07;18.20;99.90
27423;DHT22;14878;50.778;0.258;2022-08-05T00:51:08;18.20;99.90
27423;DHT22;14878;50.778;0.258;2022-08-05T00:52:09;18.20;99.90
27423;DHT22;14878;50.778;0.258;2022-08-05T00:53:10;18.20;99.90
27423;DHT22;14878;50.778;0.258;2022-08-05T00:54:12;18.20;99.90
27423;DHT22;14878;50.778;0.258;2022-08-05T00:55:13;18.30;99.90
27423;DHT22;14878;50.778;0.258;2022-08-05T00:56:15;18.20;99.90
27423;DHT22;14878;50.778;0.258;2022-08-05T00:57:16;18.30;99.90
27423;DHT22;14878;50.778;0.258;2022-08-05T00:58:17;18.20;99.90
27423;DHT22;14878;50.778;0.258;2022-08-05T00:59:18;18.20;99.90
27423;DHT22;14878;50.778;0.258;2022-08-05T01:00:18;18.30;99.90
27423;DHT22;14878;50.778;0.258;2022-08-05T01:01:19;18.30;99.90
27423;DHT22;14878;50.778;0.258;2022-08-05T01:02:20;18.20;99.90
27423;DHT22;14878;50.778;0.258;2022-08-05T01:03:21;18.20;99.90
27423;DHT22;14878;50.778;0.258;2022-08-05T01:04:22;18.20;99.90
27423;DHT22;14878;50.778;0.258;2022-08-05T01:05:23;18.20;99.90
27423;DHT22;14878;50.778;0.258;2022-08-05T01:06:24;18.20;99.90
27423;DHT22;14878;50.778;0.258;2022-08-05T01:07:25;18.20;99.90
27423;DHT22;14878;50.778;0.258;2022-08-05T01:08:26;18.20;99.90
27423;DHT22;14878;50.778;0.258;2022-08-05T01:09:26;18.20;99.90
27423;DHT22;14878;50.778;0.258;2022-08-05T01:10:57;18.30;99.90
27423;DHT22;14878;50.778;0.258;2022-08-05T01:12:05;18.30;99.90
27423;DHT22;14878;50.778;0.258;2022-08-05T01:13:17;18.20;99.90
27423;DHT22;14878;50.778;0.258;2022-08-05T01:15:37;18.20;99.90
27423;DHT22;14878;50.778;0.258;2022-08-05T01:17:56;18.20;99.90
27423;DHT22;14878;50.778;0.258;2022-08-05T01:19:22;18.20;99.90
27423;DHT22;14878;50.778;0.258;2022-08-05T01:22:28;18.10;99.90
27423;DHT22;14878;50.778;0.258;2022-08-05T01:29:02;18.10;99.90
27423;DHT22;14878;50.778;0.258;2022-08-05T01:30:04;18.20;99.90
27423;DHT22;14878;50.778;0.258;2022-08-05T01:31:09;18.20;99.90
27423;DHT22;14878;50.778;0.258;2022-08-05T01:32:15;18.20;99.90
27423;DHT22;14878;50.778;0.258;2022-08-05T01:33:22;18.20;99.90
27423;DHT22;14878;50.778;0.258;2022-08-05T01:34:30;18.10;99.90
27423;DHT22;14878;50.778;0.258;2022-08-05T01:35:33;18.10;99.90
27423;DHT22;14878;50.778;0.258;2022-08-05T01:36:41;18.10;99.90
27423;DHT22;14878;50.778;0.258;2022-08-05T01:37:46;18.10;99.90
27423;DHT22;14878;50.778;0.258;2022-08-05T01:38:48;18.10;99.90
27423;DHT22;14878;50.778;0.258;2022-08-05T01:39:50;18.00;99.90
27423;DHT22;14878;50.778;0.258;2022-08-05T01:40:57;18.00;99.90
27423;DHT22;14878;50.778;0.258;2022-08-05T01:41:59;18.00;99.90
27423;DHT22;14878;50.778;0.258;2022-08-05T01:43:02;18.00;99.90
27423;DHT22;14878;50.778;0.258;2022-08-05T01:44:04;18.00;99.90
27423;DHT22;14878;50.778;0.258;2022-08-05T01:45:07;18.00;99.90
27423;DHT22;14878;50.778;0.258;2022-08-05T01:46:08;17.90;99.90
27423;DHT22;14878;50.778;0.258;2022-08-05T01:47:09;17.90;99.90
27423;DHT22;14878;50.778;0.258;2022-08-05T01:48:11;17.90;99.90
27423;DHT22;14878;50.778;0.258;2022-08-05T01:49:17;17.90;99.90
27423;DHT22;14878;50.778;0.258;2022-08-05T01:50:25;17.90;99.90
27423;DHT22;14878;50.778;0.258;2022-08-05T01:51:27;18.00;99.90
27423;DHT22;14878;50.778;0.258;2022-08-05T01:52:31;18.00;99.90
27423;DHT22;14878;50.778;0.258;2022-08-05T01:53:34;18.00;99.90
27423;DHT22;14878;50.778;0.258;2022-08-05T01:54:44;17.90;99.90
27423;DHT22;14878;50.778;0.258;2022-08-05T01:55:46;17.90;99.90
27423;DHT22;14878;50.778;0.258;2022-08-05T01:56:49;17.90;99.90
27423;DHT22;14878;50.778;0.258;2022-08-05T01:57:52;17.90;99.90
27423;DHT22;14878;50.778;0.258;2022-08-05T01:58:55;18.00;99.90
27423;DHT22;14878;50.778;0.258;2022-08-05T02:00:02;18.00;99.90
27423;DHT22;14878;50.778;0.258;2022-08-05T02:01:04;18.00;99.90
27423;DHT22;14878;50.778;0.258;2022-08-05T02:02:06;18.00;99.90
27423;DHT22;14878;50.778;0.258;2022-08-05T02:03:24;17.90;99.90
27423;DHT22;14878;50.778;0.258;2022-08-05T02:04:27;17.80;99.90
27423;DHT22;14878;50.778;0.258;2022-08-05T02:05:32;17.80;99.90
27423;DHT22;14878;50.778;0.258;2022-08-05T02:06:34;17.80;99.90
27423;DHT22;14878;50.778;0.258;2022-08-05T02:07:35;17.70;99.90
27423;DHT22;14878;50.778;0.258;2022-08-05T02:08:37;17.80;99.90
27423;DHT22;14878;50.778;0.258;2022-08-05T02:09:38;17.80;99.90
27423;DHT22;14878;50.778;0.258;2022-08-05T02:10:42;17.80;99.90
27423;DHT22;14878;50.778;0.258;2022-08-05T02:11:50;17.80;99.90
27423;DHT22;14878;50.778;0.258;2022-08-05T02:12:56;17.70;99.90
27423;DHT22;14878;50.778;0.258;2022-08-05T02:14:04;17.70;99.90
27423;DHT22;14878;50.778;0.258;2022-08-05T02:15:32;17.70;99.90
27423;DHT22;14878;50.778;0.258;2022-08-05T02:16:41;17.70;99.90
27423;DHT22;14878;50.778;0.258;2022-08-05T02:17:51;17.80;99.90
27423;DHT22;14878;50.778;0.258;2022-08-05T02:20:07;17.70;99.90
27423;DHT22;14878;50.778;0.258;2022-08-05T02:21:12;17.70;99.90
27423;DHT22;14878;50.778;0.258;2022-08-05T02:23:21;17.70;99.90
27423;DHT22;14878;50.778;0.258;2022-08-05T02:24:27;17.70;99.90
27423;DHT22;14878;50.778;0.258;2022-08-05T02:25:38;17.70;99.90
27423;DHT22;14878;50.778;0.258;2022-08-05T02:26:49;17.70;99.90
27423;DHT22;14878;50.778;0.258;2022-08-05T02:27:51;17.80;99.90
27423;DHT22;14878;50.778;0.258;2022-08-05T02:28:55;17.70;99.90
27423;DHT22;14878;50.778;0.258;2022-08-05T02:29:57;17.70;99.90
27423;DHT22;14878;50.778;0.258;2022-08-05T02:31:06;17.70;99.90
27423;DHT22;14878;50.778;0.258;2022-08-05T02:32:08;17.70;99.90
27423;DHT22;14878;50.778;0.258;2022-08-05T02:33:15;17.70;99.90
27423;DHT22;14878;50.778;0.258;2022-08-05T02:34:19;17.80;99.90
27423;DHT22;14878;50.778;0.258;2022-08-05T02:35:23;17.80;99.90
27423;DHT22;14878;50.778;0.258;2022-08-05T02:36:26;17.80;99.90
27423;DHT22;14878;50.778;0.258;2022-08-05T02:37:29;17.80;99.90
27423;DHT22;14878;50.778;0.258;2022-08-05T02:38:32;17.70;99.90
27423;DHT22;14878;50.778;0.258;2022-08-05T02:39:35;17.70;99.90
27423;DHT22;14878;50.778;0.258;2022-08-05T02:40:41;17.70;99.90
27423;DHT22;14878;50.778;0.258;2022-08-05T02:41:42;17.60;99.90
27423;DHT22;14878;50.778;0.258;2022-08-05T02:42:45;17.60;99.90
27423;DHT22;14878;50.778;0.258;2022-08-05T02:43:47;17.70;99.90
27423;DHT22;14878;50.778;0.258;2022-08-05T02:44:49;17.60;99.90
27423;DHT22;14878;50.778;0.258;2022-08-05T02:45:51;17.60;99.90
27423;DHT22;14878;50.778;0.258;2022-08-05T02:46:54;17.60;99.90
27423;DHT22;14878;50.778;0.258;2022-08-05T02:47:56;17.60;99.90
27423;DHT22;14878;50.778;0.258;2022-08-05T02:48:58;17.60;99.90
27423;DHT22;14878;50.778;0.258;2022-08-05T02:50:00;17.60;99.90
27423;DHT22;14878;50.778;0.258;2022-08-05T02:51:01;17.60;99.90
27423;DHT22;14878;50.778;0.258;2022-08-05T02:52:04;17.60;99.90
27423;DHT22;14878;50.778;0.258;2022-08-05T02:53:06;17.50;99.90
27423;DHT22;14878;50.778;0.258;2022-08-05T02:54:09;17.50;99.90
27423;DHT22;14878;50.778;0.258;2022-08-05T02:55:10;17.30;99.90
27423;DHT22;14878;50.778;0.258;2022-08-05T02:56:12;17.50;99.90
27423;DHT22;14878;50.778;0.258;2022-08-05T02:57:16;17.50;99.90
27423;DHT22;14878;50.778;0.258;2022-08-05T02:58:17;17.50;99.90
27423;DHT22;14878;50.778;0.258;2022-08-05T02:59:21;17.40;99.90
27423;DHT22;14878;50.778;0.258;2022-08-05T03:00:23;17.40;99.90
27423;DHT22;14878;50.778;0.258;2022-08-05T03:01:26;17.40;99.90
27423;DHT22;14878;50.778;0.258;2022-08-05T03:02:30;17.40;99.90
27423;DHT22;14878;50.778;0.258;2022-08-05T03:03:33;17.50;99.90
27423;DHT22;14878;50.778;0.258;2022-08-05T03:04:36;17.40;99.90
27423;DHT22;14878;50.778;0.258;2022-08-05T03:05:38;17.40;99.90
27423;DHT22;14878;50.778;0.258;2022-08-05T03:06:40;17.30;99.90
27423;DHT22;14878;50.778;0.258;2022-08-05T03:07:42;17.30;99.90
27423;DHT22;14878;50.778;0.258;2022-08-05T03:08:43;17.30;99.90
27423;DHT22;14878;50.778;0.258;2022-08-05T03:09:45;17.30;99.90
27423;DHT22;14878;50.778;0.258;2022-08-05T03:10:46;17.30;99.90
27423;DHT22;14878;50.778;0.258;2022-08-05T03:11:47;17.30;99.90
27423;DHT22;14878;50.778;0.258;2022-08-05T03:12:48;17.30;99.90
27423;DHT22;14878;50.778;0.258;2022-08-05T03:13:50;17.30;99.90
27423;DHT22;14878;50.778;0.258;2022-08-05T03:14:50;17.30;99.90
27423;DHT22;14878;50.778;0.258;2022-08-05T03:15:51;17.40;99.90
27423;DHT22;14878;50.778;0.258;2022-08-05T03:16:52;17.30;99.90
27423;DHT22;14878;50.778;0.258;2022-08-05T03:17:53;17.30;99.90
27423;DHT22;14878;50.778;0.258;2022-08-05T03:18:54;17.30;99.90
27423;DHT22;14878;50.778;0.258;2022-08-05T03:19:55;17.20;99.90
27423;DHT22;14878;50.778;0.258;2022-08-05T03:20:56;17.20;99.90
27423;DHT22;14878;50.778;0.258;2022-08-05T03:21:57;17.20;99.90
27423;DHT22;14878;50.778;0.258;2022-08-05T03:22:58;17.20;99.90
27423;DHT22;14878;50.778;0.258;2022-08-05T03:23:59;17.10;99.90
27423;DHT22;14878;50.778;0.258;2022-08-05T03:25:04;17.10;99.90
27423;DHT22;14878;50.778;0.258;2022-08-05T03:26:05;17.10;99.90
27423;DHT22;14878;50.778;0.258;2022-08-05T03:27:06;17.10;99.90
27423;DHT22;14878;50.778;0.258;2022-08-05T03:28:08;17.10;99.90
27423;DHT22;14878;50.778;0.258;2022-08-05T03:29:09;17.10;99.90
27423;DHT22;14878;50.778;0.258;2022-08-05T03:30:10;17.10;99.90
27423;DHT22;14878;50.778;0.258;2022-08-05T03:31:11;17.10;99.90
27423;DHT22;14878;50.778;0.258;2022-08-05T03:32:14;17.10;99.90
27423;DHT22;14878;50.778;0.258;2022-08-05T03:33:15;17.10;99.90
27423;DHT22;14878;50.778;0.258;2022-08-05T03:34:18;17.00;99.90
27423;DHT22;14878;50.778;0.258;2022-08-05T03:35:20;17.00;99.90
27423;DHT22;14878;50.778;0.258;2022-08-05T03:36:21;17.00;99.90
27423;DHT22;14878;50.778;0.258;2022-08-05T03:37:21;17.00;99.90
27423;DHT22;14878;50.778;0.258;2022-08-05T03:38:23;17.00;99.90
27423;DHT22;14878;50.778;0.258;2022-08-05T03:39:24;17.10;99.90
27423;DHT22;14878;50.778;0.258;2022-08-05T03:40:25;17.10;99.90
27423;DHT22;14878;50.778;0.258;2022-08-05T03:41:26;17.10;99.90
27423;DHT22;14878;50.778;0.258;2022-08-05T03:42:27;17.10;99.90
27423;DHT22;14878;50.778;0.258;2022-08-05T03:43:28;17.00;99.90
27423;DHT22;14878;50.778;0.258;2022-08-05T03:44:29;17.10;99.90
27423;DHT22;14878;50.778;0.258;2022-08-05T03:45:30;17.00;99.90
27423;DHT22;14878;50.778;0.258;2022-08-05T03:46:30;17.00;99.90
27423;DHT22;14878;50.778;0.258;2022-08-05T03:47:31;17.00;99.90
27423;DHT22;14878;50.778;0.258;2022-08-05T03:48:32;17.00;99.90
27423;DHT22;14878;50.778;0.258;2022-08-05T03:49:33;16.90;99.90
27423;DHT22;14878;50.778;0.258;2022-08-05T03:52:05;16.90;99.90
27423;DHT22;14878;50.778;0.258;2022-08-05T03:53:33;16.90;99.90
27423;DHT22;14878;50.778;0.258;2022-08-05T03:54:42;16.90;99.90
27423;DHT22;14878;50.778;0.258;2022-08-05T03:55:56;16.80;99.90
27423;DHT22;14878;50.778;0.258;2022-08-05T03:56:59;16.80;99.90
27423;DHT22;14878;50.778;0.258;2022-08-05T03:58:03;16.70;99.90
27423;DHT22;14878;50.778;0.258;2022-08-05T03:59:19;16.70;99.90
27423;DHT22;14878;50.778;0.258;2022-08-05T04:00:21;16.70;99.90
27423;DHT22;14878;50.778;0.258;2022-08-05T04:01:28;16.70;99.90
27423;DHT22;14878;50.778;0.258;2022-08-05T04:02:31;16.70;99.90
27423;DHT22;14878;50.778;0.258;2022-08-05T04:03:34;16.70;99.90
27423;DHT22;14878;50.778;0.258;2022-08-05T04:04:37;16.60;99.90
27423;DHT22;14878;50.778;0.258;2022-08-05T04:05:39;16.60;99.90
27423;DHT22;14878;50.778;0.258;2022-08-05T04:06:42;16.50;99.90
27423;DHT22;14878;50.778;0.258;2022-08-05T04:07:46;16.50;99.90
27423;DHT22;14878;50.778;0.258;2022-08-05T04:08:49;16.50;99.90
27423;DHT22;14878;50.778;0.258;2022-08-05T04:09:52;16.50;99.90
27423;DHT22;14878;50.778;0.258;2022-08-05T04:10:55;16.50;99.90
27423;DHT22;14878;50.778;0.258;2022-08-05T04:11:56;16.40;99.90
27423;DHT22;14878;50.778;0.258;2022-08-05T04:12:58;16.40;99.90
27423;DHT22;14878;50.778;0.258;2022-08-05T04:13:59;16.40;99.90
27423;DHT22;14878;50.778;0.258;2022-08-05T04:15:00;16.40;99.90
27423;DHT22;14878;50.778;0.258;2022-08-05T04:16:01;16.40;99.90
27423;DHT22;14878;50.778;0.258;2022-08-05T04:17:02;16.40;99.90
27423;DHT22;14878;50.778;0.258;2022-08-05T04:18:04;16.40;99.90
27423;DHT22;14878;50.778;0.258;2022-08-05T04:19:05;16.30;99.90
27423;DHT22;14878;50.778;0.258;2022-08-05T04:20:06;16.40;99.90
27423;DHT22;14878;50.778;0.258;2022-08-05T04:21:07;16.30;99.90
27423;DHT22;14878;50.778;0.258;2022-08-05T04:22:08;16.30;99.90
27423;DHT22;14878;50.778;0.258;2022-08-05T04:23:10;16.30;99.90
27423;DHT22;14878;50.778;0.258;2022-08-05T04:24:11;16.30;99.90
27423;DHT22;14878;50.778;0.258;2022-08-05T04:25:12;16.30;99.90
27423;DHT22;14878;50.778;0.258;2022-08-05T04:26:13;16.30;99.90
27423;DHT22;14878;50.778;0.258;2022-08-05T04:27:14;16.20;99.90
27423;DHT22;14878;50.778;0.258;2022-08-05T04:28:15;16.30;99.90
27423;DHT22;14878;50.778;0.258;2022-08-05T04:29:16;16.30;99.90
27423;DHT22;14878;50.778;0.258;2022-08-05T04:30:17;16.30;99.90
27423;DHT22;14878;50.778;0.258;2022-08-05T04:31:18;16.20;99.90
27423;DHT22;14878;50.778;0.258;2022-08-05T04:32:19;16.20;99.90
27423;DHT22;14878;50.778;0.258;2022-08-05T04:33:20;16.20;99.90
27423;DHT22;14878;50.778;0.258;2022-08-05T04:34:21;16.10;99.90
27423;DHT22;14878;50.778;0.258;2022-08-05T04:35:22;16.10;99.90
27423;DHT22;14878;50.778;0.258;2022-08-05T04:36:22;16.10;99.90
27423;DHT22;14878;50.778;0.258;2022-08-05T04:37:23;16.10;99.90
27423;DHT22;14878;50.778;0.258;2022-08-05T04:38:24;16.10;99.90
27423;DHT22;14878;50.778;0.258;2022-08-05T04:39:25;16.10;99.90
27423;DHT22;14878;50.778;0.258;2022-08-05T04:40:25;16.10;99.90
27423;DHT22;14878;50.778;0.258;2022-08-05T04:41:26;16.10;99.90
27423;DHT22;14878;50.778;0.258;2022-08-05T04:42:27;16.10;99.90
27423;DHT22;14878;50.778;0.258;2022-08-05T04:43:28;16.00;99.90
27423;DHT22;14878;50.778;0.258;2022-08-05T04:44:29;16.00;99.90
27423;DHT22;14878;50.778;0.258;2022-08-05T04:45:29;16.00;99.90
27423;DHT22;14878;50.778;0.258;2022-08-05T04:46:31;16.00;99.90
27423;DHT22;14878;50.778;0.258;2022-08-05T04:47:31;16.00;99.90
27423;DHT22;14878;50.778;0.258;2022-08-05T04:48:32;16.00;99.90
27423;DHT22;14878;50.778;0.258;2022-08-05T04:49:33;15.90;99.90
27423;DHT22;14878;50.778;0.258;2022-08-05T04:50:49;15.90;99.90
27423;DHT22;14878;50.778;0.258;2022-08-05T04:51:50;15.90;99.90
27423;DHT22;14878;50.778;0.258;2022-08-05T04:52:51;15.90;99.90
27423;DHT22;14878;50.778;0.258;2022-08-05T04:53:51;15.90;99.90
27423;DHT22;14878;50.778;0.258;2022-08-05T04:54:52;15.90;99.90
27423;DHT22;14878;50.778;0.258;2022-08-05T04:55:53;15.80;99.90
27423;DHT22;14878;50.778;0.258;2022-08-05T04:56:54;15.80;99.90
27423;DHT22;14878;50.778;0.258;2022-08-05T04:57:54;15.90;99.90
27423;DHT22;14878;50.778;0.258;2022-08-05T04:58:56;15.90;99.90
27423;DHT22;14878;50.778;0.258;2022-08-05T04:59:56;15.80;99.90
27423;DHT22;14878;50.778;0.258;2022-08-05T05:00:57;15.90;99.90
27423;DHT22;14878;50.778;0.258;2022-08-05T05:01:58;15.90;99.90
27423;DHT22;14878;50.778;0.258;2022-08-05T05:03:00;15.90;99.90
27423;DHT22;14878;50.778;0.258;2022-08-05T05:04:00;15.90;99.90
27423;DHT22;14878;50.778;0.258;2022-08-05T05:05:01;15.90;99.90
27423;DHT22;14878;50.778;0.258;2022-08-05T05:06:02;15.80;99.90
27423;DHT22;14878;50.778;0.258;2022-08-05T05:07:03;15.80;99.90
27423;DHT22;14878;50.778;0.258;2022-08-05T05:09:06;15.90;99.90
27423;DHT22;14878;50.778;0.258;2022-08-05T05:10:07;15.80;99.90
27423;DHT22;14878;50.778;0.258;2022-08-05T05:11:07;15.90;99.90
27423;DHT22;14878;50.778;0.258;2022-08-05T05:12:08;15.80;99.90
27423;DHT22;14878;50.778;0.258;2022-08-05T05:13:10;15.90;99.90
27423;DHT22;14878;50.778;0.258;2022-08-05T05:14:11;15.80;99.90
27423;DHT22;14878;50.778;0.258;2022-08-05T05:15:12;15.80;99.90
27423;DHT22;14878;50.778;0.258;2022-08-05T05:16:13;15.80;99.90
27423;DHT22;14878;50.778;0.258;2022-08-05T05:17:15;15.80;99.90
27423;DHT22;14878;50.778;0.258;2022-08-05T05:18:16;15.90;99.90
27423;DHT22;14878;50.778;0.258;2022-08-05T05:19:17;15.80;99.90
27423;DHT22;14878;50.778;0.258;2022-08-05T05:20:18;15.80;99.90
27423;DHT22;14878;50.778;0.258;2022-08-05T05:21:19;15.80;99.90
27423;DHT22;14878;50.778;0.258;2022-08-05T05:22:23;15.70;99.90
27423;DHT22;14878;50.778;0.258;2022-08-05T05:23:23;15.70;99.90
27423;DHT22;14878;50.778;0.258;2022-08-05T05:24:24;15.80;99.90
27423;DHT22;14878;50.778;0.258;2022-08-05T05:25:26;15.70;99.90
27423;DHT22;14878;50.778;0.258;2022-08-05T05:26:27;15.70;99.90
27423;DHT22;14878;50.778;0.258;2022-08-05T05:27:29;15.70;99.90
27423;DHT22;14878;50.778;0.258;2022-08-05T05:28:30;15.70;99.90
27423;DHT22;14878;50.778;0.258;2022-08-05T05:29:31;15.70;99.90
27423;DHT22;14878;50.778;0.258;2022-08-05T05:30:32;15.70;99.90
27423;DHT22;14878;50.778;0.258;2022-08-05T05:31:33;15.70;99.90
27423;DHT22;14878;50.778;0.258;2022-08-05T05:32:33;15.80;99.90
27423;DHT22;14878;50.778;0.258;2022-08-05T05:33:34;15.80;99.90
27423;DHT22;14878;50.778;0.258;2022-08-05T05:34:35;15.80;99.90
27423;DHT22;14878;50.778;0.258;2022-08-05T05:35:36;15.80;99.90
27423;DHT22;14878;50.778;0.258;2022-08-05T05:36:36;15.80;99.90
27423;DHT22;14878;50.778;0.258;2022-08-05T05:37:54;15.80;99.90
27423;DHT22;14878;50.778;0.258;2022-08-05T05:38:55;15.90;99.90
27423;DHT22;14878;50.778;0.258;2022-08-05T05:39:56;15.90;99.90
27423;DHT22;14878;50.778;0.258;2022-08-05T05:40:57;15.90;99.90
27423;DHT22;14878;50.778;0.258;2022-08-05T05:41:58;16.00;99.90
27423;DHT22;14878;50.778;0.258;2022-08-05T05:42:59;16.00;99.90
27423;DHT22;14878;50.778;0.258;2022-08-05T05:43:59;16.00;99.90
27423;DHT22;14878;50.778;0.258;2022-08-05T05:45:00;16.10;99.90
27423;DHT22;14878;50.778;0.258;2022-08-05T05:46:01;16.10;99.90
27423;DHT22;14878;50.778;0.258;2022-08-05T05:47:02;16.10;99.90
27423;DHT22;14878;50.778;0.258;2022-08-05T05:48:03;15.70;99.90
27423;DHT22;14878;50.778;0.258;2022-08-05T05:49:06;16.20;99.90
27423;DHT22;14878;50.778;0.258;2022-08-05T05:50:08;16.20;99.90
27423;DHT22;14878;50.778;0.258;2022-08-05T05:51:10;16.30;99.90
27423;DHT22;14878;50.778;0.258;2022-08-05T05:52:10;16.30;99.90
27423;DHT22;14878;50.778;0.258;2022-08-05T05:53:11;16.40;99.90
27423;DHT22;14878;50.778;0.258;2022-08-05T05:54:12;16.40;99.90
27423;DHT22;14878;50.778;0.258;2022-08-05T05:55:14;16.50;99.90
27423;DHT22;14878;50.778;0.258;2022-08-05T05:56:15;16.50;99.90
27423;DHT22;14878;50.778;0.258;2022-08-05T05:57:16;16.60;99.90
27423;DHT22;14878;50.778;0.258;2022-08-05T05:58:17;16.60;99.90
27423;DHT22;14878;50.778;0.258;2022-08-05T05:59:18;16.60;99.90
27423;DHT22;14878;50.778;0.258;2022-08-05T06:00:20;16.70;99.90
27423;DHT22;14878;50.778;0.258;2022-08-05T06:01:22;16.80;99.90
27423;DHT22;14878;50.778;0.258;2022-08-05T06:02:26;16.80;99.90
27423;DHT22;14878;50.778;0.258;2022-08-05T06:03:27;16.60;99.90
27423;DHT22;14878;50.778;0.258;2022-08-05T06:04:28;16.80;99.90
27423;DHT22;14878;50.778;0.258;2022-08-05T06:05:28;16.90;99.90
27423;DHT22;14878;50.778;0.258;2022-08-05T06:06:29;17.00;99.90
27423;DHT22;14878;50.778;0.258;2022-08-05T06:07:30;17.00;99.90
27423;DHT22;14878;50.778;0.258;2022-08-05T06:08:31;17.00;99.90
27423;DHT22;14878;50.778;0.258;2022-08-05T06:09:32;17.00;99.90
27423;DHT22;14878;50.778;0.258;2022-08-05T06:10:33;17.00;99.90
27423;DHT22;14878;50.778;0.258;2022-08-05T06:11:34;15.70;99.90
27423;DHT22;14878;50.778;0.258;2022-08-05T06:12:36;17.10;99.90
27423;DHT22;14878;50.778;0.258;2022-08-05T06:13:36;17.10;99.90
27423;DHT22;14878;50.778;0.258;2022-08-05T06:14:37;17.10;99.90
27423;DHT22;14878;50.778;0.258;2022-08-05T06:15:38;17.20;99.90
27423;DHT22;14878;50.778;0.258;2022-08-05T06:16:39;17.20;99.90
27423;DHT22;14878;50.778;0.258;2022-08-05T06:17:40;17.30;99.90
27423;DHT22;14878;50.778;0.258;2022-08-05T06:18:40;17.20;99.90
27423;DHT22;14878;50.778;0.258;2022-08-05T06:19:41;17.30;99.90
27423;DHT22;14878;50.778;0.258;2022-08-05T06:20:42;17.40;99.90
27423;DHT22;14878;50.778;0.258;2022-08-05T06:21:43;17.40;99.90
27423;DHT22;14878;50.778;0.258;2022-08-05T06:22:44;17.40;99.90
27423;DHT22;14878;50.778;0.258;2022-08-05T06:23:45;17.50;99.90
27423;DHT22;14878;50.778;0.258;2022-08-05T06:24:46;17.60;99.90
27423;DHT22;14878;50.778;0.258;2022-08-05T06:25:47;17.70;99.90
27423;DHT22;14878;50.778;0.258;2022-08-05T06:26:48;17.70;99.90
27423;DHT22;14878;50.778;0.258;2022-08-05T06:27:49;17.60;99.90
27423;DHT22;14878;50.778;0.258;2022-08-05T06:28:50;17.60;99.90
27423;DHT22;14878;50.778;0.258;2022-08-05T06:29:51;17.60;99.90
27423;DHT22;14878;50.778;0.258;2022-08-05T06:30:51;17.60;99.90
27423;DHT22;14878;50.778;0.258;2022-08-05T06:31:52;17.70;99.90
27423;DHT22;14878;50.778;0.258;2022-08-05T06:32:53;17.70;99.90
27423;DHT22;14878;50.778;0.258;2022-08-05T06:33:54;17.90;99.90
27423;DHT22;14878;50.778;0.258;2022-08-05T06:34:55;18.00;99.90
27423;DHT22;14878;50.778;0.258;2022-08-05T06:35:57;18.00;99.90
27423;DHT22;14878;50.778;0.258;2022-08-05T06:36:58;17.90;99.90
27423;DHT22;14878;50.778;0.258;2022-08-05T06:37:59;17.80;99.90
27423;DHT22;14878;50.778;0.258;2022-08-05T06:39:00;17.90;99.90
27423;DHT22;14878;50.778;0.258;2022-08-05T06:40:01;18.00;99.90
27423;DHT22;14878;50.778;0.258;2022-08-05T06:41:02;18.00;99.90
27423;DHT22;14878;50.778;0.258;2022-08-05T06:42:03;18.00;99.90
27423;DHT22;14878;50.778;0.258;2022-08-05T06:43:04;18.10;99.90
27423;DHT22;14878;50.778;0.258;2022-08-05T06:44:05;18.10;99.90
27423;DHT22;14878;50.778;0.258;2022-08-05T06:45:07;18.00;99.90
27423;DHT22;14878;50.778;0.258;2022-08-05T06:46:08;18.00;99.90
27423;DHT22;14878;50.778;0.258;2022-08-05T06:47:08;17.90;99.90
27423;DHT22;14878;50.778;0.258;2022-08-05T06:48:10;17.90;99.90
27423;DHT22;14878;50.778;0.258;2022-08-05T06:49:10;17.90;99.90